createdAt,value
2022-10-11T00:00:21.154Z,101122.31
2022-10-11T00:02:25.214Z,101124.03
2022-10-11T00:04:29.240Z,101125.66
2022-10-11T00:06:33.274Z,101133.56
2022-10-11T00:08:35.379Z,101132.13
2022-10-11T00:10:37.155Z,101131.63
2022-10-11T00:12:38.845Z,101130.34
2022-10-11T00:14:40.514Z,101134.97
2022-10-11T00:16:42.262Z,101139.31
2022-10-11T00:18:43.926Z,101131.34
2022-10-11T00:20:47.348Z,101128.09
2022-10-11T00:22:49.070Z,101127.28
2022-10-11T00:24:50.964Z,101128.72
2022-10-11T00:26:52.513Z,101138.06
2022-10-11T00:28:54.101Z,101135.66
2022-10-11T00:30:55.786Z,101137.56
2022-10-11T00:32:57.555Z,101135.16
2022-10-11T00:34:59.148Z,101139.03
2022-10-11T00:37:02.096Z,101147.72
2022-10-11T00:39:04.597Z,101137.56
2022-10-11T00:41:07.221Z,101139.19
2022-10-11T00:43:15.088Z,101152.06
2022-10-11T00:45:58.815Z,101143.38
2022-10-11T00:48:04.853Z,101153.81
2022-10-11T00:50:11.336Z,101140.31
2022-10-11T00:52:20.526Z,101144.50
2022-10-11T00:54:25.886Z,101137.41
2022-10-11T00:56:30.966Z,101147.56
2022-10-11T00:58:34.975Z,101148.19
2022-10-11T01:00:36.726Z,101155.44
2022-10-11T01:02:39.237Z,101145.94
2022-10-11T01:04:41.998Z,101144.34
2022-10-11T01:06:44.022Z,101141.13
2022-10-11T01:08:47.234Z,101146.09
2022-10-11T01:10:49.018Z,101142.56
2022-10-11T01:13:03.532Z,101141.78
2022-10-11T01:15:15.238Z,101137.91
2022-10-11T01:17:23.656Z,101138.06
2022-10-11T01:19:54.852Z,101149.34
2022-10-11T01:22:09.100Z,101145.47
2022-10-11T01:24:42.038Z,101143.88
2022-10-11T01:27:15.928Z,101146.91
2022-10-11T01:29:25.111Z,101151.72
2022-10-11T01:31:36.644Z,101151.91
2022-10-11T01:33:43.687Z,101152.19
2022-10-11T01:35:49.274Z,101160.09
2022-10-11T01:37:56.514Z,101150.94
2022-10-11T01:40:01.440Z,101148.97
2022-10-11T01:42:06.011Z,101158.31
2022-10-11T01:44:09.259Z,101147.38
2022-10-11T01:46:11.887Z,101151.72
2022-10-11T01:48:14.823Z,101156.38
2022-10-11T01:50:39.953Z,101149.66
2022-10-11T01:52:44.395Z,101155.75
2022-10-11T01:55:09.745Z,101155.75
2022-10-11T01:57:36.411Z,101159.25
2022-10-11T01:59:51.994Z,101161.19
2022-10-11T02:02:02.507Z,101164.25
2022-10-11T02:04:15.231Z,101178.56
2022-10-11T02:06:23.232Z,101182.41
2022-10-11T02:08:38.671Z,101177.41
2022-10-11T02:10:44.963Z,101183.00
2022-10-11T02:12:53.745Z,101186.06
2022-10-11T02:14:57.561Z,101184.47
2022-10-11T02:17:02.028Z,101190.25
2022-10-11T02:19:07.010Z,101184.63
2022-10-11T02:21:12.156Z,101187.66
2022-10-11T02:23:20.074Z,101188.63
2022-10-11T02:25:25.726Z,101187.34
2022-10-11T02:27:33.091Z,101189.59
2022-10-11T02:29:39.691Z,101185.75
2022-10-11T02:31:43.600Z,101188.59
2022-10-11T02:33:50.190Z,101186.78
2022-10-11T02:35:58.830Z,101190.22
2022-10-11T02:38:05.854Z,101187.63
2022-10-11T02:40:16.950Z,101191.47
2022-10-11T02:42:24.497Z,101183.06
2022-10-11T02:44:29.049Z,101188.25
2022-10-11T02:46:31.276Z,101190.97
2022-10-11T02:48:35.905Z,101193.38
2022-10-11T02:50:37.552Z,101196.91
2022-10-11T02:52:40.652Z,101192.72
2022-10-11T02:54:42.582Z,101192.88
2022-10-11T02:56:44.187Z,101198.31
2022-10-11T02:58:45.708Z,101199.13
2022-10-11T03:00:47.563Z,101197.84
2022-10-11T03:02:52.534Z,101199.75
2022-10-11T03:04:54.100Z,101202.63
2022-10-11T03:06:55.800Z,101207.59
2022-10-11T03:08:58.789Z,101207.91
2022-10-11T03:11:01.019Z,101203.56
2022-10-11T03:13:02.994Z,101210.94
2022-10-11T03:15:05.660Z,101210.94
2022-10-11T03:17:30.902Z,101205.97
2022-10-11T03:19:28.967Z,101200.03
2022-10-11T03:21:33.495Z,101214.94
2022-10-11T03:23:34.977Z,101217.66
2022-10-11T03:25:37.991Z,101213.00
2022-10-11T03:27:39.539Z,101214.94
2022-10-11T03:29:41.013Z,101219.91
2022-10-11T03:31:42.731Z,101222.13
2022-10-11T03:33:44.749Z,101222.28
2022-10-11T03:35:47.536Z,101226.91
2022-10-11T03:37:49.069Z,101223.69
2022-10-11T03:39:50.768Z,101225.31
2022-10-11T03:41:53.713Z,101228.03
2022-10-11T03:43:55.388Z,101223.69
2022-10-11T03:45:56.905Z,101227.53
2022-10-11T03:47:58.443Z,101227.06
2022-10-11T03:50:00.120Z,101226.84
2022-10-11T03:52:03.749Z,101231.84
2022-10-11T03:54:05.412Z,101232.97
2022-10-11T03:56:08.705Z,101230.84
2022-10-11T03:58:12.026Z,101231.97
2022-10-11T04:00:14.949Z,101231.78
2022-10-11T04:02:17.036Z,101233.50
2022-10-11T04:04:18.606Z,101234.75
2022-10-11T04:06:20.136Z,101234.81
2022-10-11T04:08:21.690Z,101239.19
2022-10-11T04:10:23.223Z,101241.41
2022-10-11T04:12:24.976Z,101241.91
2022-10-11T04:14:28.173Z,101249.75
2022-10-11T04:16:29.691Z,101253.00
2022-10-11T04:18:31.283Z,101257.66
2022-10-11T04:20:33.096Z,101257.03
2022-10-11T04:22:34.649Z,101264.06
2022-10-11T04:24:36.205Z,101260.06
2022-10-11T04:26:38.365Z,101263.41
2022-10-11T04:28:39.928Z,101262.91
2022-10-11T04:30:42.827Z,101266.75
2022-10-11T04:32:44.491Z,101264.94
2022-10-11T04:34:46.266Z,101273.13
2022-10-11T04:36:53.569Z,101280.50
2022-10-11T04:38:55.203Z,101270.69
2022-10-11T04:41:05.982Z,101283.03
2022-10-11T04:43:07.668Z,101287.78
2022-10-11T04:45:09.891Z,101280.41
2022-10-11T04:47:13.153Z,101287.19
2022-10-11T04:49:14.846Z,101293.75
2022-10-11T04:51:16.578Z,101288.88
2022-10-11T04:53:18.168Z,101294.94
2022-10-11T04:55:19.717Z,101295.25
2022-10-11T04:57:21.272Z,101305.47
2022-10-11T04:59:22.836Z,101310.91
2022-10-11T05:01:24.497Z,101307.69
2022-10-11T05:03:27.814Z,101302.84
2022-10-11T05:05:29.493Z,101317.28
2022-10-11T05:07:31.164Z,101324.44
2022-10-11T05:09:32.697Z,101314.97
2022-10-11T05:11:34.289Z,101326.38
2022-10-11T05:13:36.209Z,101325.88
2022-10-11T05:15:37.816Z,101331.63
2022-10-11T05:17:42.255Z,101332.72
2022-10-11T05:19:45.170Z,101334.13
2022-10-11T05:21:46.690Z,101337.47
2022-10-11T05:23:49.963Z,101330.41
2022-10-11T05:25:51.557Z,101334.25
2022-10-11T05:27:53.103Z,101336.75
2022-10-11T05:29:54.639Z,101340.16
2022-10-11T05:31:56.376Z,101342.09
2022-10-11T05:33:58.053Z,101356.50
2022-10-11T05:36:01.067Z,101350.34
2022-10-11T05:38:02.638Z,101352.09
2022-10-11T05:40:05.216Z,101355.09
2022-10-11T05:42:09.899Z,101357.94
2022-10-11T05:44:11.706Z,101361.75
2022-10-11T05:46:13.365Z,101364.28
2022-10-11T05:48:14.892Z,101363.00
2022-10-11T05:50:19.706Z,101362.44
2022-10-11T05:52:26.323Z,101364.41
2022-10-11T05:54:29.450Z,101371.47
2022-10-11T05:56:30.901Z,101374.50
2022-10-11T05:58:32.489Z,101373.38
2022-10-11T06:00:36.844Z,101374.22
2022-10-11T06:02:38.857Z,101382.97
2022-10-11T06:04:40.738Z,101376.50
2022-10-11T06:06:42.362Z,101387.25
2022-10-11T06:08:45.788Z,101391.88
2022-10-11T06:10:47.328Z,101388.06
2022-10-11T06:12:51.801Z,101396.44
2022-10-11T06:14:53.410Z,101396.13
2022-10-11T06:16:54.996Z,101403.72
2022-10-11T06:18:57.304Z,101402.59
2022-10-11T06:20:59.414Z,101400.19
2022-10-11T06:23:01.347Z,101405.63
2022-10-11T06:25:05.033Z,101404.00
2022-10-11T06:27:06.769Z,101402.41
2022-10-11T06:29:08.811Z,101408.16
2022-10-11T06:31:10.805Z,101401.56
2022-10-11T06:33:13.840Z,101407.63
2022-10-11T06:35:15.560Z,101406.53
2022-10-11T06:37:17.075Z,101421.25
2022-10-11T06:39:21.475Z,101419.53
2022-10-11T06:41:26.343Z,101422.25
2022-10-11T06:43:27.946Z,101419.03
2022-10-11T06:45:29.723Z,101416.97
2022-10-11T06:47:31.270Z,101426.16
2022-10-11T06:49:33.657Z,101425.66
2022-10-11T06:51:35.266Z,101433.03
2022-10-11T06:53:37.150Z,101434.63
2022-10-11T06:55:38.895Z,101432.72
2022-10-11T06:57:42.280Z,101440.56
2022-10-11T06:59:44.022Z,101436.75
2022-10-11T07:01:45.646Z,101448.97
2022-10-11T07:03:48.227Z,101450.56
2022-10-11T07:05:49.793Z,101450.28
2022-10-11T07:07:51.927Z,101446.16
2022-10-11T07:09:53.677Z,101455.16
2022-10-11T07:11:55.387Z,101454.03
2022-10-11T07:14:00.359Z,101458.66
2022-10-11T07:16:03.085Z,101468.75
2022-10-11T07:18:05.043Z,101463.38
2022-10-11T07:20:07.718Z,101468.75
2022-10-11T07:22:09.504Z,101468.75
2022-10-11T07:24:11.337Z,101470.06
2022-10-11T07:26:12.988Z,101468.34
2022-10-11T07:28:14.973Z,101471.38
2022-10-11T07:30:18.024Z,101467.00
2022-10-11T07:32:19.602Z,101473.75
2022-10-11T07:34:21.190Z,101476.03
2022-10-11T07:36:23.469Z,101477.06
2022-10-11T07:38:25.935Z,101472.16
2022-10-11T07:40:27.611Z,101478.91
2022-10-11T07:42:29.179Z,101475.91
2022-10-11T07:44:31.073Z,101475.28
2022-10-11T07:46:34.150Z,101480.63
2022-10-11T07:48:36.674Z,101484.97
2022-10-11T07:50:38.313Z,101480.25
2022-10-11T07:52:40.174Z,101480.72
2022-10-11T07:54:42.017Z,101487.53
2022-10-11T07:56:43.524Z,101484.69
2022-10-11T07:58:49.148Z,101483.72
2022-10-11T08:00:53.295Z,101476.63
2022-10-11T08:02:56.524Z,101483.09
2022-10-11T08:04:58.683Z,101488.56
2022-10-11T08:07:00.319Z,101494.00
2022-10-11T08:09:02.511Z,101498.50
2022-10-11T08:11:05.055Z,101497.00
2022-10-11T08:13:07.126Z,101497.97
2022-10-11T08:15:09.429Z,101499.53
2022-10-11T08:17:11.723Z,101512.66
2022-10-11T08:19:14.944Z,101503.16
2022-10-11T08:21:18.294Z,101500.13
2022-10-11T08:23:20.360Z,101506.38
2022-10-11T08:25:22.159Z,101507.38
2022-10-11T08:27:24.157Z,101508.19
2022-10-11T08:29:27.042Z,101511.63
2022-10-11T08:31:29.229Z,101512.34
2022-10-11T08:33:30.797Z,101505.97
2022-10-11T08:35:33.861Z,101519.59
2022-10-11T08:37:35.504Z,101518.88
2022-10-11T08:39:37.080Z,101519.88
2022-10-11T08:41:42.185Z,101509.84
2022-10-11T08:43:51.537Z,101512.41
2022-10-11T08:45:56.149Z,101517.03
2022-10-11T08:48:07.505Z,101507.72
2022-10-11T08:50:17.381Z,101517.44
2022-10-11T08:52:24.624Z,101511.97
2022-10-11T08:54:37.184Z,101521.09
2022-10-11T08:56:39.147Z,101515.22
2022-10-11T08:58:45.322Z,101516.50
2022-10-11T09:00:50.714Z,101516.38
2022-10-11T09:03:10.129Z,101517.41
2022-10-11T09:05:16.715Z,101521.00
2022-10-11T09:07:30.966Z,101508.16
2022-10-11T09:10:00.626Z,101502.94
2022-10-11T09:12:16.894Z,101507.66
2022-10-11T09:14:39.344Z,101512.75
2022-10-11T09:16:55.619Z,101506.50
2022-10-11T09:19:17.650Z,101507.81
2022-10-11T09:21:28.027Z,101509.16
2022-10-11T09:23:44.385Z,101508.59
2022-10-11T09:25:53.321Z,101506.97
2022-10-11T09:28:05.252Z,101509.47
2022-10-11T09:30:13.083Z,101515.31
2022-10-11T09:32:17.478Z,101511.78
2022-10-11T09:34:21.852Z,101513.09
2022-10-11T09:36:31.192Z,101503.34
2022-10-11T09:38:43.263Z,101508.19
2022-10-11T09:40:54.902Z,101501.50
2022-10-11T09:42:56.600Z,101504.56
2022-10-11T09:44:58.287Z,101501.56
2022-10-11T09:47:00.209Z,101502.00
2022-10-11T09:49:04.764Z,101500.69
2022-10-11T09:51:12.961Z,101502.44
2022-10-11T09:53:14.678Z,101495.53
2022-10-11T09:55:33.498Z,101489.44
2022-10-11T09:57:39.330Z,101491.22
2022-10-11T09:59:41.008Z,101493.88
2022-10-11T10:01:42.914Z,101489.84
2022-10-11T10:03:44.653Z,101484.63
2022-10-11T10:05:46.287Z,101487.25
2022-10-11T10:08:23.057Z,101483.75
2022-10-11T10:10:33.780Z,101483.88
2022-10-11T10:12:35.301Z,101484.97
2022-10-11T10:14:37.151Z,101476.66
2022-10-11T10:16:38.957Z,101483.78
2022-10-11T10:18:48.891Z,101478.03
2022-10-11T10:20:56.396Z,101472.59
2022-10-11T10:22:59.164Z,101474.31
2022-10-11T10:25:03.057Z,101479.69
2022-10-11T10:27:14.890Z,101478.84
2022-10-11T10:29:17.372Z,101477.63
2022-10-11T10:31:22.455Z,101474.50
2022-10-11T10:33:25.944Z,101475.78
2022-10-11T10:35:32.479Z,101472.31
2022-10-11T10:37:38.730Z,101467.22
2022-10-11T10:39:46.186Z,101470.25
2022-10-11T10:41:47.922Z,101474.97
2022-10-11T10:43:55.768Z,101468.63
2022-10-11T10:46:16.546Z,101465.44
2022-10-11T10:48:27.919Z,101457.47
2022-10-11T10:50:39.762Z,101467.81
2022-10-11T10:53:09.153Z,101469.75
2022-10-11T10:55:22.764Z,101462.22
2022-10-11T10:57:31.156Z,101464.00
2022-10-11T10:59:49.644Z,101461.53
2022-10-11T11:02:11.178Z,101461.22
2022-10-11T11:04:28.696Z,101462.69
2022-10-11T11:06:38.501Z,101455.41
2022-10-11T11:09:00.421Z,101447.38
2022-10-11T11:11:13.689Z,101448.16
2022-10-11T11:13:25.461Z,101448.34
2022-10-11T11:15:37.971Z,101451.75
2022-10-11T11:17:55.021Z,101451.97
2022-10-11T11:20:12.883Z,101448.06
2022-10-11T11:22:30.497Z,101452.22
2022-10-11T11:24:44.245Z,101440.94
2022-10-11T11:26:52.392Z,101444.22
2022-10-11T11:29:09.513Z,101440.53
2022-10-11T11:31:28.139Z,101438.31
2022-10-11T11:33:39.995Z,101439.50
2022-10-11T11:35:45.866Z,101439.53
2022-10-11T11:37:49.876Z,101429.94
2022-10-11T11:39:57.508Z,101433.38
2022-10-11T11:42:04.470Z,101436.06
2022-10-11T11:44:11.595Z,101434.41
2022-10-11T11:46:20.554Z,101424.25
2022-10-11T11:48:24.515Z,101425.72
2022-10-11T11:50:27.850Z,101415.91
2022-10-11T11:52:45.867Z,101411.91
2022-10-11T11:54:52.012Z,101418.31
2022-10-11T11:57:01.698Z,101420.94
2022-10-11T11:59:16.926Z,101412.25
2022-10-11T12:01:31.005Z,101413.72
2022-10-11T12:03:41.439Z,101408.66
2022-10-11T12:06:24.898Z,101408.41
2022-10-11T12:08:37.910Z,101403.56
2022-10-11T12:10:54.888Z,101402.22
2022-10-11T12:13:16.241Z,101399.03
2022-10-11T12:15:25.062Z,101399.19
2022-10-11T12:17:28.654Z,101393.31
2022-10-11T12:19:30.344Z,101406.44
2022-10-11T12:21:33.597Z,101400.81
2022-10-11T12:23:46.550Z,101397.63
2022-10-11T12:26:30.843Z,101395.13
2022-10-11T12:29:02.190Z,101393.78
2022-10-11T12:31:06.077Z,101392.09
2022-10-11T12:33:17.829Z,101391.63
2022-10-11T12:35:56.943Z,101388.38
2022-10-11T12:38:05.519Z,101389.25
2022-10-11T12:40:34.358Z,101393.53
2022-10-11T12:42:37.106Z,101384.97
2022-10-11T12:44:38.708Z,101380.28
2022-10-11T12:47:19.875Z,101380.81
2022-10-11T12:49:47.442Z,101379.88
2022-10-11T12:51:58.319Z,101380.69
2022-10-11T12:54:26.557Z,101376.78
2022-10-11T12:56:43.098Z,101374.09
2022-10-11T12:58:48.045Z,101372.56
2022-10-11T13:01:18.855Z,101369.94
2022-10-11T13:03:32.342Z,101367.38
2022-10-11T13:05:45.215Z,101374.00
2022-10-11T13:07:48.631Z,101372.69
2022-10-11T13:09:54.032Z,101375.97
2022-10-11T13:12:00.389Z,101375.81
2022-10-11T13:14:08.844Z,101376.25
2022-10-11T13:16:16.798Z,101369.84
2022-10-11T13:18:22.335Z,101372.13
2022-10-11T13:20:26.314Z,101373.09
2022-10-11T13:22:33.907Z,101372.13
2022-10-11T13:24:38.558Z,101374.47
2022-10-11T13:26:41.464Z,101370.13
2022-10-11T13:28:43.176Z,101376.34
2022-10-11T13:30:47.753Z,101377.06
2022-10-11T13:32:49.567Z,101365.81
2022-10-11T13:36:58.386Z,101359.78
2022-10-11T13:39:01.753Z,101364.94
2022-10-11T13:41:05.269Z,101355.63
2022-10-11T13:43:08.027Z,101358.28
2022-10-11T13:45:12.307Z,101358.97
2022-10-11T13:47:15.793Z,101358.41
2022-10-11T13:49:38.349Z,101355.19
2022-10-11T13:51:40.039Z,101353.16
2022-10-11T13:53:57.172Z,101344.22
2022-10-11T13:56:02.403Z,101339.06
2022-10-11T13:58:13.872Z,101346.53
2022-10-11T14:00:25.951Z,101341.50
2022-10-11T14:02:29.230Z,101345.94
2022-10-11T14:04:40.416Z,101341.19
2022-10-11T14:06:46.156Z,101344.09
2022-10-11T14:08:51.684Z,101338.47
2022-10-11T14:10:57.263Z,101341.94
2022-10-11T14:13:05.398Z,101341.88
2022-10-11T14:15:24.089Z,101346.13
2022-10-11T14:17:38.176Z,101344.09
2022-10-11T14:19:40.182Z,101342.25
2022-10-11T14:21:50.439Z,101348.69
2022-10-11T14:23:53.670Z,101345.38
2022-10-11T14:25:55.218Z,101345.72
2022-10-11T14:27:57.232Z,101340.34
2022-10-11T14:30:24.076Z,101346.31
2022-10-11T14:32:29.742Z,101351.09
2022-10-11T14:34:32.154Z,101340.22
2022-10-11T14:36:33.871Z,101340.03
2022-10-11T14:38:35.473Z,101338.91
2022-10-11T14:40:37.497Z,101340.03
2022-10-11T14:42:39.604Z,101338.16
2022-10-11T14:44:41.631Z,101352.78
2022-10-11T14:46:49.438Z,101347.66
2022-10-11T14:48:55.427Z,101353.34
2022-10-11T14:51:00.976Z,101345.50
2022-10-11T14:53:03.493Z,101349.06
2022-10-11T14:55:05.403Z,101350.72
2022-10-11T14:57:07.216Z,101356.88
2022-10-11T14:59:12.518Z,101345.00
2022-10-11T15:01:15.393Z,101346.91
2022-10-11T15:03:20.495Z,101348.88
2022-10-11T15:05:23.680Z,101351.00
2022-10-11T15:07:25.247Z,101345.84
2022-10-11T15:09:26.857Z,101352.66
2022-10-11T15:11:28.476Z,101352.59
2022-10-11T15:13:30.010Z,101343.38
2022-10-11T15:15:31.805Z,101349.72
2022-10-11T15:17:33.488Z,101337.06
2022-10-11T15:19:36.628Z,101343.56
2022-10-11T15:21:39.649Z,101335.69
2022-10-11T15:23:41.490Z,101333.25
2022-10-11T15:25:43.130Z,101340.88
2022-10-11T15:27:45.906Z,101338.50
2022-10-11T15:29:47.492Z,101340.25
2022-10-11T15:31:49.122Z,101342.50
2022-10-11T15:33:51.777Z,101338.81
2022-10-11T15:35:54.651Z,101343.78
2022-10-11T15:37:58.742Z,101344.13
2022-10-11T15:40:00.616Z,101339.59
2022-10-11T15:42:02.397Z,101341.38
2022-10-11T15:44:04.288Z,101335.59
2022-10-11T15:46:06.143Z,101340.59
2022-10-11T15:48:08.611Z,101339.47
2022-10-11T15:50:21.646Z,101336.72
2022-10-11T15:52:24.628Z,101341.56
2022-10-11T15:54:26.297Z,101342.53
2022-10-11T15:56:32.957Z,101336.75
2022-10-11T15:58:37.125Z,101342.22
2022-10-11T16:00:38.718Z,101347.34
2022-10-11T16:02:40.341Z,101346.56
2022-10-11T16:04:42.192Z,101347.50
2022-10-11T16:06:43.963Z,101345.41
2022-10-11T16:08:47.158Z,101344.44
2022-10-11T16:10:49.367Z,101345.91
2022-10-11T16:12:50.958Z,101346.06
2022-10-11T16:14:52.653Z,101356.34
2022-10-11T16:16:54.329Z,101342.66
2022-10-11T16:18:55.996Z,101344.94
2022-10-11T16:20:57.722Z,101351.03
2022-10-11T16:23:00.411Z,101346.38
2022-10-11T16:25:04.375Z,101350.75
2022-10-11T16:27:06.285Z,101350.75
2022-10-11T16:29:07.792Z,101348.16
2022-10-11T16:31:10.902Z,101349.94
2022-10-11T16:33:12.601Z,101350.88
2022-10-11T16:35:16.041Z,101354.44
2022-10-11T16:37:18.501Z,101350.56
2022-10-11T16:39:20.109Z,101349.47
2022-10-11T16:41:23.237Z,101346.69
2022-10-11T16:43:24.870Z,101347.66
2022-10-11T16:45:26.724Z,101357.16
2022-10-11T16:47:28.263Z,101356.19
2022-10-11T16:49:30.031Z,101358.63
2022-10-11T16:51:31.850Z,101355.53
2022-10-11T16:53:34.121Z,101357.81
2022-10-11T16:55:39.258Z,101353.78
2022-10-11T16:57:42.858Z,101344.94
2022-10-11T16:59:44.814Z,101357.00
2022-10-11T17:01:46.592Z,101354.25
2022-10-11T17:03:49.535Z,101354.13
2022-10-11T17:05:51.089Z,101352.50
2022-10-11T17:07:52.744Z,101356.69
2022-10-11T17:09:54.722Z,101357.81
2022-10-11T17:11:56.289Z,101353.50
2022-10-11T17:14:00.509Z,101356.22
2022-10-11T17:16:02.377Z,101358.28
2022-10-11T17:18:04.057Z,101350.41
2022-10-11T17:20:06.307Z,101354.56
2022-10-11T17:22:08.200Z,101358.72
2022-10-11T17:24:09.913Z,101356.94
2022-10-11T17:26:17.687Z,101358.34
2022-10-11T17:28:19.724Z,101367.22
2022-10-11T17:30:22.973Z,101370.06
2022-10-11T17:32:24.565Z,101368.13
2022-10-11T17:34:26.370Z,101365.44
2022-10-11T17:36:31.109Z,101363.34
2022-10-11T17:38:33.292Z,101358.38
2022-10-11T17:40:35.280Z,101352.13
2022-10-11T17:42:36.994Z,101363.22
2022-10-11T17:44:39.130Z,101352.47
2022-10-11T17:46:42.259Z,101352.38
2022-10-11T17:48:44.375Z,101356.69
2022-10-11T17:50:50.499Z,101360.88
2022-10-11T17:52:52.836Z,101357.19
2022-10-11T17:54:54.465Z,101362.66
2022-10-11T17:56:56.378Z,101353.34
2022-10-11T17:58:59.505Z,101357.41
2022-10-11T18:01:02.896Z,101364.59
2022-10-11T18:03:06.929Z,101363.50
2022-10-11T18:05:09.308Z,101364.94
2022-10-11T18:07:11.277Z,101364.28
2022-10-11T18:09:14.857Z,101373.47
2022-10-11T18:11:19.707Z,101373.31
2022-10-11T18:13:21.498Z,101375.03
2022-10-11T18:15:23.616Z,101370.19
2022-10-11T18:17:26.022Z,101370.69
2022-10-11T18:19:29.773Z,101370.97
2022-10-11T18:21:34.687Z,101368.59
2022-10-11T18:23:36.833Z,101372.44
2022-10-11T18:25:38.602Z,101368.88
2022-10-11T18:27:40.433Z,101371.59
2022-10-11T18:29:45.186Z,101370.47
2022-10-11T18:31:47.186Z,101365.19
2022-10-11T18:33:50.122Z,101362.75
2022-10-11T18:36:00.163Z,101362.75
2022-10-11T18:38:02.548Z,101363.91
2022-10-11T18:40:05.726Z,101365.63
2022-10-11T18:42:08.392Z,101367.69
2022-10-11T18:44:12.583Z,101360.44
2022-10-11T18:46:14.657Z,101365.09
2022-10-11T18:48:16.255Z,101369.75
2022-10-11T18:50:18.377Z,101371.81
2022-10-11T18:52:21.746Z,101376.78
2022-10-11T18:54:23.561Z,101368.59
2022-10-11T18:56:27.029Z,101370.84
2022-10-11T18:58:30.105Z,101368.91
2022-10-11T19:00:40.737Z,101371.94
2022-10-11T19:02:43.037Z,101370.16
2022-10-11T19:04:44.875Z,101371.09
2022-10-11T19:06:48.147Z,101370.44
2022-10-11T19:08:53.588Z,101365.59
2022-10-11T19:10:55.507Z,101371.44
2022-10-11T19:12:57.499Z,101375.19
2022-10-11T19:14:59.250Z,101371.34
2022-10-11T19:17:01.213Z,101371.03
2022-10-11T19:19:03.491Z,101362.34
2022-10-11T19:21:08.284Z,101364.25
2022-10-11T19:23:10.668Z,101366.50
2022-10-11T19:25:14.029Z,101371.78
2022-10-11T19:27:16.287Z,101369.53
2022-10-11T19:29:19.809Z,101363.59
2022-10-11T19:31:21.877Z,101362.78
2022-10-11T19:33:24.317Z,101361.19
2022-10-11T19:35:26.754Z,101359.25
2022-10-11T19:37:28.854Z,101363.72
2022-10-11T19:39:31.634Z,101361.78
2022-10-11T19:41:34.682Z,101365.13
2022-10-11T19:43:36.416Z,101358.72
2022-10-11T19:45:38.235Z,101360.31
2022-10-11T19:47:39.795Z,101361.44
2022-10-11T19:49:41.908Z,101365.88
2022-10-11T19:51:43.507Z,101369.72
2022-10-11T19:53:45.686Z,101364.78
2022-10-11T19:55:47.381Z,101365.03
2022-10-11T19:57:50.720Z,101363.41
2022-10-11T19:59:52.566Z,101362.53
2022-10-11T20:01:54.488Z,101366.88
2022-10-11T20:03:58.983Z,101368.78
2022-10-11T20:06:01.582Z,101362.84
2022-10-11T20:08:04.006Z,101368.53
2022-10-11T20:10:05.987Z,101371.06
2022-10-11T20:12:08.400Z,101369.09
2022-10-11T20:14:11.756Z,101373.34
2022-10-11T20:16:15.562Z,101389.72
2022-10-11T20:18:17.508Z,101378.44
2022-10-11T20:20:19.643Z,101387.22
2022-10-11T20:22:21.744Z,101381.16
2022-10-11T20:24:23.793Z,101379.72
2022-10-11T20:26:28.429Z,101377.78
2022-10-11T20:28:31.107Z,101380.22
2022-10-11T20:30:34.193Z,101379.59
2022-10-11T20:32:36.248Z,101377.19
2022-10-11T20:34:37.956Z,101377.69
2022-10-11T20:36:39.551Z,101378.63
2022-10-11T20:38:42.977Z,101374.28
2022-10-11T20:40:44.519Z,101377.91
2022-10-11T20:42:46.130Z,101378.59
2022-10-11T20:44:48.042Z,101378.63
2022-10-11T20:46:51.128Z,101382.66
2022-10-11T20:48:58.850Z,101381.06
2022-10-11T20:51:03.404Z,101380.75
2022-10-11T20:53:05.103Z,101377.41
2022-10-11T20:55:07.298Z,101380.94
2022-10-11T20:57:08.876Z,101382.22
2022-10-11T20:59:10.443Z,101381.94
2022-10-11T21:01:13.593Z,101389.63
2022-10-11T21:03:17.316Z,101391.53
2022-10-11T21:05:18.874Z,101392.84
2022-10-11T21:07:20.716Z,101381.44
2022-10-11T21:09:22.629Z,101384.78
2022-10-11T21:11:25.123Z,101386.38
2022-10-11T21:13:26.875Z,101386.38
2022-10-11T21:15:29.706Z,101384.78
2022-10-11T21:17:31.318Z,101385.09
2022-10-11T21:19:34.171Z,101385.38
2022-10-11T21:21:35.854Z,101391.03
2022-10-11T21:23:37.909Z,101383.97
2022-10-11T21:25:40.045Z,101382.88
2022-10-11T21:27:41.694Z,101377.41
2022-10-11T21:29:43.374Z,101376.91
2022-10-11T21:31:45.019Z,101376.09
2022-10-11T21:33:47.093Z,101378.34
2022-10-11T21:35:50.037Z,101366.09
2022-10-11T21:37:51.593Z,101371.03
2022-10-11T21:39:53.323Z,101368.13
2022-10-11T21:41:54.953Z,101375.00
2022-10-11T21:43:56.646Z,101373.88
2022-10-11T21:45:58.340Z,101372.34
2022-10-11T21:47:59.894Z,101371.88
2022-10-11T21:50:01.581Z,101373.50
2022-10-11T21:52:05.091Z,101374.09
2022-10-11T21:54:06.961Z,101361.91
2022-10-11T21:56:09.092Z,101362.69
2022-10-11T21:58:10.747Z,101364.91
2022-10-11T22:00:13.576Z,101358.94
2022-10-11T22:02:15.162Z,101359.56
2022-10-11T22:04:16.734Z,101354.13
2022-10-11T22:06:18.396Z,101356.34
2022-10-11T22:08:21.667Z,101351.28
2022-10-11T22:10:23.416Z,101354.31
2022-10-11T22:12:24.948Z,101353.31
2022-10-11T22:14:26.855Z,101353.91
2022-10-11T22:16:28.559Z,101342.91
2022-10-11T22:18:33.465Z,101346.25
2022-10-11T22:20:35.431Z,101346.84
2022-10-11T22:22:37.552Z,101355.00
2022-10-11T22:24:40.678Z,101346.84
2022-10-11T22:26:42.351Z,101346.84
2022-10-11T22:28:44.136Z,101352.28
2022-10-11T22:30:45.710Z,101345.22
2022-10-11T22:32:47.419Z,101338.66
2022-10-11T22:34:48.933Z,101344.91
2022-10-11T22:36:50.510Z,101345.81
2022-10-11T22:38:53.003Z,101341.47
2022-10-11T22:40:58.735Z,101341.00
2022-10-11T22:43:00.387Z,101350.53
2022-10-11T22:45:01.936Z,101341.88
2022-10-11T22:47:03.695Z,101346.31
2022-10-11T22:49:05.397Z,101338.16
2022-10-11T22:51:07.343Z,101346.31
2022-10-11T22:53:09.405Z,101341.47
2022-10-11T22:55:10.933Z,101337.94
2022-10-11T22:57:13.927Z,101338.44
2022-10-11T22:59:15.537Z,101335.78
2022-10-11T23:01:17.074Z,101333.06
2022-10-11T23:03:19.350Z,101334.47
2022-10-11T23:05:20.967Z,101334.75
2022-10-11T23:07:22.552Z,101333.97
2022-10-11T23:09:24.129Z,101333.66
2022-10-11T23:11:25.660Z,101333.66
2022-10-11T23:13:28.813Z,101329.03
2022-10-11T23:15:30.342Z,101332.09
2022-10-11T23:17:31.954Z,101329.47
2022-10-11T23:19:33.514Z,101326.97
2022-10-11T23:21:35.061Z,101325.28
2022-10-11T23:23:36.634Z,101325.44
2022-10-11T23:25:38.231Z,101322.34
2022-10-11T23:27:40.096Z,101326.69
2022-10-11T23:29:43.288Z,101325.13
2022-10-11T23:31:44.924Z,101318.75
2022-10-11T23:33:47.015Z,101326.00
2022-10-11T23:35:48.767Z,101319.69
2022-10-11T23:37:50.331Z,101320.69
2022-10-11T23:39:51.862Z,101318.78
2022-10-11T23:41:53.904Z,101310.53
2022-10-11T23:43:56.033Z,101313.78
2022-10-11T23:45:58.904Z,101312.66
2022-10-11T23:48:00.509Z,101313.97